createdAt,value
2018-10-18T00:02:26.860Z,25.00
2018-10-18T00:04:55.231Z,24.60
2018-10-18T00:07:23.371Z,23.33
2018-10-18T00:09:51.499Z,25.33
2018-10-18T00:12:19.754Z,24.37
2018-10-18T00:14:47.876Z,27.77
2018-10-18T00:17:21.532Z,19.27
2018-10-18T00:19:49.659Z,19.93
2018-10-18T00:22:17.799Z,20.52
2018-10-18T00:24:45.939Z,18.57
2018-10-18T00:27:14.325Z,20.03
2018-10-18T00:29:42.444Z,19.63
2018-10-18T00:32:10.843Z,17.50
2018-10-18T00:34:39.151Z,15.90
2018-10-18T00:37:07.511Z,16.97
2018-10-18T00:39:35.656Z,19.87
2018-10-18T00:42:05.101Z,17.37
2018-10-18T00:44:34.493Z,19.10
2018-10-18T00:47:02.633Z,18.03
2018-10-18T00:49:30.958Z,15.97
2018-10-18T00:51:59.083Z,16.10
2018-10-18T00:54:27.231Z,19.10
2018-10-18T00:56:55.366Z,16.93
2018-10-18T00:59:23.528Z,20.47
2018-10-18T01:01:51.930Z,19.93
2018-10-18T01:04:20.095Z,16.83
2018-10-18T01:06:48.356Z,17.83
2018-10-18T01:09:16.488Z,16.20
2018-10-18T01:11:44.819Z,17.63
2018-10-18T01:14:13.349Z,16.03
2018-10-18T01:16:41.542Z,18.23
2018-10-18T01:19:09.668Z,16.47
2018-10-18T01:21:38.991Z,18.37
2018-10-18T01:24:07.579Z,14.20
2018-10-18T01:26:35.704Z,18.93
2018-10-18T01:29:03.831Z,15.67
2018-10-18T01:31:31.975Z,17.13
2018-10-18T01:34:00.219Z,17.03
2018-10-18T01:36:28.583Z,17.40
2018-10-18T01:38:56.720Z,15.73
2018-10-18T01:41:25.032Z,18.47
2018-10-18T01:43:53.186Z,17.57
2018-10-18T01:46:21.311Z,13.53
2018-10-18T01:48:53.392Z,15.87
2018-10-18T01:51:21.528Z,16.12
2018-10-18T01:53:49.643Z,18.70
2018-10-18T01:56:17.772Z,20.90
2018-10-18T01:58:45.903Z,16.93
2018-10-18T02:01:14.237Z,20.30
2018-10-18T02:03:42.598Z,18.37
2018-10-18T02:06:10.845Z,18.67
2018-10-18T02:08:38.918Z,19.43
2018-10-18T02:11:07.292Z,19.07
2018-10-18T02:13:35.564Z,20.87
2018-10-18T02:16:03.876Z,24.47
2018-10-18T02:18:32.103Z,18.73
2018-10-18T02:21:00.324Z,17.80
2018-10-18T02:23:28.448Z,23.60
2018-10-18T02:25:56.816Z,20.03
2018-10-18T02:28:25.576Z,16.80
2018-10-18T02:30:53.696Z,17.00
2018-10-18T02:33:21.892Z,16.05
2018-10-18T02:35:50.154Z,18.50
2018-10-18T02:38:18.288Z,16.93
2018-10-18T02:40:46.416Z,15.97
2018-10-18T02:43:14.816Z,17.43
2018-10-18T02:45:42.952Z,18.70
2018-10-18T02:48:11.093Z,20.57
2018-10-18T02:50:39.208Z,20.23
2018-10-18T02:53:07.339Z,16.60
2018-10-18T02:55:35.480Z,16.97
2018-10-18T02:58:03.718Z,18.67
2018-10-18T03:00:31.897Z,17.53
2018-10-18T03:03:00.028Z,16.07
2018-10-18T03:05:28.653Z,16.57
2018-10-18T03:07:57.016Z,15.63
2018-10-18T03:10:25.428Z,14.63
2018-10-18T03:13:12.837Z,15.53
2018-10-18T03:15:40.977Z,17.23
2018-10-18T03:18:09.378Z,14.27
2018-10-18T03:20:37.656Z,15.50
2018-10-18T03:23:05.783Z,16.55
2018-10-18T03:25:34.724Z,18.37
2018-10-18T03:28:03.437Z,16.42
2018-10-18T03:30:31.517Z,16.97
2018-10-18T03:32:59.651Z,18.03
2018-10-18T03:35:27.779Z,15.70
2018-10-18T03:37:55.918Z,18.07
2018-10-18T03:40:24.378Z,16.23
2018-10-18T03:42:52.502Z,16.90
2018-10-18T03:45:20.629Z,15.17
2018-10-18T03:47:48.903Z,15.32
2018-10-18T03:50:17.795Z,13.47
2018-10-18T03:52:45.980Z,15.03
2018-10-18T03:55:14.115Z,11.87
2018-10-18T03:57:42.239Z,16.27
2018-10-18T04:00:10.467Z,15.87
2018-10-18T04:02:38.532Z,14.95
2018-10-18T04:05:07.225Z,13.63
2018-10-18T04:07:35.359Z,12.77
2018-10-18T04:10:03.523Z,13.93
2018-10-18T04:12:32.545Z,12.27
2018-10-18T04:15:01.305Z,10.25
2018-10-18T04:17:29.480Z,13.23
2018-10-18T04:19:57.613Z,18.23
2018-10-18T04:22:25.912Z,20.60
2018-10-18T04:24:54.268Z,19.73
2018-10-18T04:27:22.644Z,17.93
2018-10-18T04:29:51.023Z,20.70
2018-10-18T04:32:19.403Z,16.87
2018-10-18T04:34:47.532Z,23.30
2018-10-18T04:37:15.953Z,19.80
2018-10-18T04:39:43.983Z,19.23
2018-10-18T04:42:12.164Z,20.10
2018-10-18T04:44:40.251Z,18.87
2018-10-18T04:47:08.429Z,23.43
2018-10-18T04:49:37.420Z,23.67
2018-10-18T04:52:05.770Z,18.83
2018-10-18T04:54:33.927Z,19.63
2018-10-18T04:57:02.448Z,18.53
2018-10-18T04:59:30.585Z,17.23
2018-10-18T05:01:58.708Z,17.43
2018-10-18T05:04:26.862Z,14.53
2018-10-18T05:06:55.170Z,15.47
2018-10-18T05:09:23.551Z,18.80
2018-10-18T05:11:51.933Z,17.80
2018-10-18T05:14:20.068Z,14.87
2018-10-18T05:16:48.270Z,15.27
2018-10-18T05:19:16.496Z,15.20
2018-10-18T05:21:44.824Z,16.67
2018-10-18T05:24:13.532Z,15.78
2018-10-18T05:26:41.654Z,16.40
2018-10-18T05:29:09.780Z,13.90
2018-10-18T05:31:40.867Z,18.03
2018-10-18T05:34:08.952Z,15.43
2018-10-18T05:36:52.487Z,18.33
2018-10-18T05:39:20.926Z,16.83
2018-10-18T05:41:49.226Z,20.10
2018-10-18T05:44:17.341Z,19.40
2018-10-18T05:46:45.557Z,17.57
2018-10-18T05:49:13.718Z,20.43
2018-10-18T05:51:41.812Z,20.93
2018-10-18T05:54:10.985Z,19.87
2018-10-18T05:56:39.605Z,16.17
2018-10-18T05:59:07.747Z,19.60
2018-10-18T06:01:36.079Z,19.17
2018-10-18T06:04:05.128Z,18.50
2018-10-18T06:06:33.268Z,21.07
2018-10-18T06:09:01.380Z,22.93
2018-10-18T06:11:31.088Z,25.73
2018-10-18T06:13:59.351Z,20.37
2018-10-18T06:16:27.587Z,22.70
2018-10-18T06:18:55.838Z,23.13
2018-10-18T06:21:24.496Z,18.87
2018-10-18T06:23:52.616Z,17.87
2018-10-18T06:26:21.279Z,17.48
2018-10-18T06:28:50.144Z,18.10
2018-10-18T06:31:18.792Z,18.43
2018-10-18T06:33:47.112Z,20.57
2018-10-18T06:36:15.236Z,19.50
2018-10-18T06:38:43.591Z,24.97
2018-10-18T06:41:11.847Z,25.77
2018-10-18T06:43:41.045Z,37.60
2018-10-18T06:46:11.184Z,39.23
2018-10-18T06:48:39.728Z,30.47
2018-10-18T06:51:08.203Z,29.00
2018-10-18T06:53:36.360Z,36.50
2018-10-18T06:56:04.863Z,28.93
2018-10-18T06:58:32.996Z,31.67
2018-10-18T07:01:01.412Z,39.57
2018-10-18T07:03:29.771Z,30.87
2018-10-18T07:05:57.948Z,36.50
2018-10-18T07:08:27.692Z,24.97
2018-10-18T07:10:56.011Z,36.80
2018-10-18T07:13:24.260Z,32.17
2018-10-18T07:15:52.412Z,30.87
2018-10-18T07:18:20.996Z,36.80
2018-10-18T07:20:49.377Z,36.23
2018-10-18T07:23:17.755Z,37.38
2018-10-18T07:25:46.184Z,34.57
2018-10-18T07:28:14.532Z,34.13
2018-10-18T07:30:42.652Z,25.70
2018-10-18T07:33:10.968Z,29.90
2018-10-18T07:35:39.350Z,31.17
2018-10-18T07:38:07.487Z,24.57
2018-10-18T07:40:35.796Z,29.13
2018-10-18T07:43:03.911Z,28.37
2018-10-18T07:45:32.255Z,22.40
2018-10-18T07:48:00.930Z,22.80
2018-10-18T07:50:29.049Z,31.10
2018-10-18T07:52:57.195Z,25.63
2018-10-18T07:55:25.316Z,24.13
2018-10-18T07:57:53.520Z,25.93
2018-10-18T08:00:21.778Z,28.77
2018-10-18T08:02:49.968Z,21.73
2018-10-18T08:05:18.097Z,22.83
2018-10-18T08:07:46.422Z,19.40
2018-10-18T08:10:15.798Z,27.63
2018-10-18T08:12:43.931Z,23.10
2018-10-18T08:15:13.703Z,26.12
2018-10-18T08:17:42.656Z,28.87
2018-10-18T08:20:11.761Z,25.63
2018-10-18T08:22:40.561Z,27.93
2018-10-18T08:25:09.703Z,23.50
2018-10-18T08:27:38.228Z,27.63
2018-10-18T08:30:09.175Z,25.23
2018-10-18T08:32:37.323Z,21.07
2018-10-18T08:35:06.950Z,21.73
2018-10-18T08:37:35.096Z,21.90
2018-10-18T08:40:03.224Z,19.20
2018-10-18T08:42:31.395Z,17.93
2018-10-18T08:44:59.540Z,16.95
2018-10-18T08:47:27.668Z,19.83
2018-10-18T08:49:55.937Z,16.57
2018-10-18T08:52:24.271Z,18.70
2018-10-18T08:54:52.695Z,13.97
2018-10-18T08:57:20.823Z,15.85
2018-10-18T08:59:49.108Z,13.37
2018-10-18T09:02:17.224Z,13.60
2018-10-18T09:04:45.748Z,16.77
2018-10-18T09:07:20.485Z,14.53
2018-10-18T09:09:48.776Z,14.63
2018-10-18T09:12:16.932Z,11.80
2018-10-18T09:14:45.060Z,11.10
2018-10-18T09:17:13.207Z,13.22
2018-10-18T09:19:41.352Z,11.23
2018-10-18T09:22:09.744Z,11.40
2018-10-18T09:24:38.140Z,16.47
2018-10-18T09:27:06.277Z,9.37
2018-10-18T09:29:34.564Z,12.33
2018-10-18T09:32:02.949Z,9.00
2018-10-18T09:34:31.078Z,10.37
2018-10-18T09:36:59.420Z,11.40
2018-10-18T09:39:27.514Z,12.10
2018-10-18T09:41:55.645Z,10.13
2018-10-18T09:44:24.469Z,11.80
2018-10-18T09:46:52.523Z,11.93
2018-10-18T09:49:20.645Z,12.03
2018-10-18T09:51:48.782Z,13.23
2018-10-18T09:54:16.958Z,11.15
2018-10-18T09:56:45.344Z,15.10
2018-10-18T09:59:13.448Z,13.90
2018-10-18T10:01:47.651Z,13.63
2018-10-18T10:04:15.886Z,12.10
2018-10-18T10:06:44.923Z,11.67
2018-10-18T10:09:13.531Z,17.40
2018-10-18T10:11:41.669Z,14.17
2018-10-18T10:14:09.796Z,12.80
2018-10-18T10:16:37.918Z,12.53
2018-10-18T10:19:06.107Z,12.10
2018-10-18T10:21:34.206Z,13.37
2018-10-18T10:24:02.324Z,10.27
2018-10-18T10:26:30.440Z,7.40
2018-10-18T10:28:58.564Z,10.20
2018-10-18T10:31:26.680Z,9.93
2018-10-18T10:33:54.800Z,12.50
2018-10-18T10:36:22.956Z,12.93
2018-10-18T10:38:51.065Z,15.93
2018-10-18T10:41:19.184Z,12.80
2018-10-18T10:43:47.308Z,15.17
2018-10-18T10:46:15.512Z,13.70
2018-10-18T10:48:43.552Z,13.53
2018-10-18T10:51:12.409Z,14.23
2018-10-18T10:53:40.432Z,14.77
2018-10-18T10:56:08.630Z,12.07
2018-10-18T10:58:36.689Z,12.93
2018-10-18T11:01:14.172Z,11.77
2018-10-18T11:03:43.056Z,14.53
2018-10-18T11:06:11.491Z,14.30
2018-10-18T11:08:39.588Z,12.97
2018-10-18T11:11:08.092Z,14.50
2018-10-18T11:13:36.220Z,15.03
2018-10-18T11:16:05.612Z,13.65
2018-10-18T11:18:36.020Z,12.87
2018-10-18T11:21:05.784Z,12.93
2018-10-18T11:23:34.440Z,12.07
2018-10-18T11:26:02.985Z,13.80
2018-10-18T11:28:31.111Z,18.23
2018-10-18T11:30:59.241Z,16.43
2018-10-18T11:33:27.950Z,14.43
2018-10-18T11:35:56.128Z,12.00
2018-10-18T11:38:24.236Z,12.90
2018-10-18T11:40:52.352Z,8.50
2018-10-18T11:43:20.532Z,12.47
2018-10-18T11:45:48.651Z,10.80
2018-10-18T11:48:17.060Z,14.47
2018-10-18T11:50:45.381Z,17.63
2018-10-18T11:53:13.507Z,9.13
2018-10-18T11:55:41.648Z,11.63
2018-10-18T11:58:10.641Z,9.03
2018-10-18T12:00:38.851Z,9.73
2018-10-18T12:03:06.996Z,8.50
2018-10-18T12:05:35.192Z,12.97
2018-10-18T12:08:03.621Z,11.83
2018-10-18T12:10:31.687Z,10.83
2018-10-18T12:13:07.191Z,11.20
2018-10-18T12:15:35.320Z,7.27
2018-10-18T12:18:04.663Z,11.48
2018-10-18T12:20:32.772Z,11.70
2018-10-18T12:23:00.940Z,9.57
2018-10-18T12:25:29.016Z,8.37
2018-10-18T12:27:57.156Z,9.10
2018-10-18T12:30:25.268Z,9.40
2018-10-18T12:32:53.391Z,11.67
2018-10-18T12:35:21.550Z,10.28
2018-10-18T12:37:49.688Z,10.30
2018-10-18T12:40:17.853Z,8.50
2018-10-18T12:42:47.259Z,11.70
2018-10-18T12:45:15.385Z,7.62
2018-10-18T12:47:43.536Z,7.13
2018-10-18T12:50:11.732Z,7.33
2018-10-18T12:52:40.116Z,7.57
2018-10-18T12:55:08.264Z,11.53
2018-10-18T12:57:36.400Z,9.47
2018-10-18T13:00:05.325Z,8.83
2018-10-18T13:02:33.469Z,11.40
2018-10-18T13:05:01.530Z,7.93
2018-10-18T13:07:29.667Z,9.60
2018-10-18T13:09:57.797Z,7.30
2018-10-18T13:12:26.398Z,7.47
2018-10-18T13:14:54.320Z,7.30
2018-10-18T13:17:22.432Z,5.40
2018-10-18T13:19:50.569Z,9.77
2018-10-18T13:22:18.693Z,7.50
2018-10-18T13:24:47.067Z,6.13
2018-10-18T13:27:15.197Z,6.92
2018-10-18T13:29:43.320Z,6.07
2018-10-18T13:32:11.559Z,5.17
2018-10-18T13:34:39.582Z,6.93
2018-10-18T13:37:07.709Z,8.83
2018-10-18T13:39:36.083Z,8.50
2018-10-18T13:42:05.443Z,9.40
2018-10-18T13:44:33.509Z,5.63
2018-10-18T13:47:01.644Z,6.90
2018-10-18T13:49:29.805Z,6.62
2018-10-18T13:51:57.937Z,6.87
2018-10-18T13:54:26.698Z,9.00
2018-10-18T13:56:54.828Z,8.18
2018-10-18T13:59:34.335Z,5.67
2018-10-18T14:02:02.515Z,7.17
2018-10-18T14:04:30.617Z,7.12
2018-10-18T14:06:58.764Z,6.87
2018-10-18T14:09:27.185Z,9.50
2018-10-18T14:11:56.167Z,8.43
2018-10-18T14:14:24.294Z,9.20
2018-10-18T14:16:52.431Z,6.60
2018-10-18T14:19:20.560Z,5.42
2018-10-18T14:21:48.726Z,6.83
2018-10-18T14:24:16.851Z,5.22
2018-10-18T14:26:45.001Z,6.17
2018-10-18T14:29:13.247Z,5.70
2018-10-18T14:31:41.253Z,7.27
2018-10-18T14:34:09.598Z,7.57
2018-10-18T14:36:37.751Z,8.30
2018-10-18T14:39:07.248Z,6.63
2018-10-18T14:41:35.365Z,6.43
2018-10-18T14:44:04.609Z,7.25
2018-10-18T14:46:32.654Z,6.30
2018-10-18T14:49:00.889Z,5.53
2018-10-18T14:51:29.020Z,8.23
2018-10-18T14:53:57.157Z,5.70
2018-10-18T14:56:25.528Z,6.97
2018-10-18T14:58:53.704Z,9.53
2018-10-18T15:01:21.816Z,5.97
2018-10-18T15:03:49.981Z,5.27
2018-10-18T15:06:18.097Z,6.83
2018-10-18T15:08:46.237Z,5.90
2018-10-18T15:11:14.523Z,5.53
2018-10-18T15:13:42.508Z,7.73
2018-10-18T15:16:10.625Z,6.40
2018-10-18T15:18:38.756Z,5.57
2018-10-18T15:21:06.874Z,7.23
2018-10-18T15:23:34.998Z,4.83
2018-10-18T15:26:03.157Z,8.10
2018-10-18T15:28:31.267Z,7.20
2018-10-18T15:30:59.406Z,10.33
2018-10-18T15:36:26.932Z,6.43
2018-10-18T15:38:55.296Z,7.50
2018-10-18T15:41:23.209Z,7.03
2018-10-18T15:43:51.334Z,7.30
2018-10-18T15:46:19.797Z,5.57
2018-10-18T15:48:48.739Z,6.73
2018-10-18T15:51:17.023Z,9.70
2018-10-18T15:53:45.115Z,7.63
2018-10-18T15:56:13.132Z,6.87
2018-10-18T15:58:41.256Z,4.93
2018-10-18T16:01:09.399Z,8.67
2018-10-18T16:03:37.533Z,5.77
2018-10-18T16:06:05.768Z,7.63
2018-10-18T16:08:34.075Z,4.73
2018-10-18T16:11:02.196Z,5.60
2018-10-18T16:13:30.272Z,8.07
2018-10-18T16:15:58.440Z,6.87
2018-10-18T16:18:26.567Z,8.97
2018-10-18T16:20:54.704Z,5.50
2018-10-18T16:23:22.829Z,6.80
2018-10-18T16:25:51.048Z,6.13
2018-10-18T16:28:19.160Z,10.53
2018-10-18T16:30:47.279Z,6.50
2018-10-18T16:33:15.412Z,5.97
2018-10-18T16:35:43.576Z,5.40
2018-10-18T16:38:11.777Z,6.20
2018-10-18T16:40:40.091Z,5.67
2018-10-18T16:43:08.343Z,5.37
2018-10-18T16:45:36.460Z,7.07
2018-10-18T16:48:04.787Z,7.33
2018-10-18T16:50:32.924Z,4.33
2018-10-18T16:53:01.162Z,5.00
2018-10-18T16:55:29.731Z,4.27
2018-10-18T16:57:58.130Z,4.28
2018-10-18T17:00:48.888Z,7.13
2018-10-18T17:03:17.025Z,10.20
2018-10-18T17:05:45.201Z,5.00
2018-10-18T17:08:13.380Z,5.60
2018-10-18T17:10:41.445Z,4.70
2018-10-18T17:13:09.585Z,7.22
2018-10-18T17:15:37.731Z,4.50
2018-10-18T17:18:06.015Z,4.97
2018-10-18T17:20:35.172Z,4.40
2018-10-18T17:23:03.413Z,3.27
2018-10-18T17:25:31.563Z,9.63
2018-10-18T17:27:59.689Z,6.57
2018-10-18T17:30:28.628Z,5.20
2018-10-18T17:32:56.820Z,6.77
2018-10-18T17:35:24.947Z,5.45
2018-10-18T17:37:53.319Z,5.57
2018-10-18T17:40:21.630Z,4.07
2018-10-18T17:42:50.360Z,8.43
2018-10-18T17:45:18.490Z,5.60
2018-10-18T17:47:46.637Z,4.67
2018-10-18T17:50:14.821Z,5.15
2018-10-18T17:52:43.142Z,5.03
2018-10-18T17:55:11.586Z,7.07
2018-10-18T17:57:39.744Z,5.67
2018-10-18T18:00:09.864Z,5.57
2018-10-18T18:02:38.144Z,6.17
2018-10-18T18:05:07.225Z,6.20
2018-10-18T18:07:35.515Z,6.20
2018-10-18T18:10:03.771Z,5.55
2018-10-18T18:12:31.885Z,8.27
2018-10-18T18:15:00.028Z,6.33
2018-10-18T18:17:28.159Z,6.73
2018-10-18T18:19:56.304Z,6.23
2018-10-18T18:22:24.437Z,5.47
2018-10-18T18:24:52.642Z,5.53
2018-10-18T18:27:21.175Z,5.37
2018-10-18T18:29:49.317Z,4.00
2018-10-18T18:32:17.449Z,7.17
2018-10-18T18:34:45.604Z,7.73
2018-10-18T18:37:13.740Z,7.87
2018-10-18T18:39:41.884Z,8.97
2018-10-18T18:42:10.014Z,12.93
2018-10-18T18:44:39.285Z,8.68
2018-10-18T18:47:07.408Z,5.77
2018-10-18T18:49:35.543Z,6.00
2018-10-18T18:52:04.560Z,4.58
2018-10-18T18:54:32.713Z,6.93
2018-10-18T18:57:00.958Z,4.10
2018-10-18T18:59:29.073Z,4.57
2018-10-18T19:01:57.220Z,5.87
2018-10-18T19:04:25.380Z,5.27
2018-10-18T19:06:53.521Z,4.20
2018-10-18T19:09:21.672Z,4.55
2018-10-18T19:11:49.816Z,4.67
2018-10-18T19:14:17.939Z,4.72
2018-10-18T19:16:46.072Z,5.70
2018-10-18T19:19:14.200Z,4.33
2018-10-18T19:21:42.365Z,5.67
2018-10-18T19:24:11.412Z,4.72
2018-10-18T19:26:39.536Z,7.73
2018-10-18T19:29:07.694Z,7.87
2018-10-18T19:31:35.833Z,7.43
2018-10-18T19:34:04.977Z,6.53
2018-10-18T19:36:33.112Z,5.37
2018-10-18T19:39:01.614Z,7.10
2018-10-18T19:41:29.745Z,9.37
2018-10-18T19:43:57.923Z,5.50
2018-10-18T19:46:26.054Z,5.33
2018-10-18T19:48:54.169Z,4.63
2018-10-18T19:51:22.297Z,4.20
2018-10-18T19:53:50.488Z,7.00
2018-10-18T19:56:18.626Z,8.43
2018-10-18T19:58:46.736Z,5.23
2018-10-18T20:01:14.904Z,8.03
2018-10-18T20:03:43.025Z,4.67
2018-10-18T20:06:11.156Z,6.43
2018-10-18T20:08:39.288Z,6.90
2018-10-18T20:11:07.478Z,5.73
2018-10-18T20:13:35.685Z,3.13
2018-10-18T20:16:05.115Z,3.80
2018-10-18T20:18:33.301Z,5.63
2018-10-18T20:21:01.463Z,6.43
2018-10-18T20:23:29.796Z,6.00
2018-10-18T20:25:58.094Z,4.07
2018-10-18T20:28:26.059Z,5.07
2018-10-18T20:30:54.204Z,6.83
2018-10-18T20:33:22.347Z,5.25
2018-10-18T20:35:50.485Z,3.60
2018-10-18T20:38:18.616Z,4.73
2018-10-18T20:40:46.742Z,4.17
2018-10-18T20:43:14.871Z,3.50
2018-10-18T20:45:43.028Z,5.17
2018-10-18T20:48:11.266Z,4.67
2018-10-18T20:50:40.215Z,5.70
2018-10-18T20:53:08.420Z,4.93
2018-10-18T20:55:36.577Z,5.80
2018-10-18T20:58:04.729Z,4.80
2018-10-18T21:00:32.856Z,5.33
2018-10-18T21:03:01.065Z,4.63
2018-10-18T21:05:29.148Z,6.93
2018-10-18T21:07:57.273Z,7.87
2018-10-18T21:10:25.656Z,11.63
2018-10-18T21:12:53.812Z,10.70
2018-10-18T21:15:21.939Z,10.23
2018-10-18T21:17:50.276Z,11.37
2018-10-18T21:20:18.418Z,8.93
2018-10-18T21:22:46.614Z,10.57
2018-10-18T21:25:14.740Z,7.03
2018-10-18T21:27:42.954Z,5.35
2018-10-18T21:30:11.105Z,4.45
2018-10-18T21:32:39.246Z,6.23
2018-10-18T21:35:07.751Z,4.53
2018-10-18T21:37:36.059Z,3.90
2018-10-18T21:40:04.825Z,6.33
2018-10-18T21:42:33.037Z,3.97
2018-10-18T21:45:02.268Z,4.97
2018-10-18T21:47:30.619Z,5.03
2018-10-18T21:49:58.736Z,4.97
2018-10-18T21:52:26.862Z,5.27
2018-10-18T21:54:55.046Z,7.63
2018-10-18T21:57:23.193Z,4.63
2018-10-18T21:59:51.503Z,7.60
2018-10-18T22:02:19.621Z,6.57
2018-10-18T22:04:47.786Z,3.57
2018-10-18T22:07:16.051Z,3.90
2018-10-18T22:09:44.136Z,3.73
2018-10-18T22:12:12.280Z,5.37
2018-10-18T22:14:40.405Z,3.37
2018-10-18T22:17:08.651Z,4.87
2018-10-18T22:19:36.732Z,4.42
2018-10-18T22:22:05.199Z,6.35
2018-10-18T22:24:33.343Z,5.90
2018-10-18T22:27:01.674Z,5.87
2018-10-18T22:29:29.887Z,8.13
2018-10-18T22:31:58.021Z,4.53
2018-10-18T22:34:26.186Z,5.87
2018-10-18T22:36:54.326Z,5.87
2018-10-18T22:39:22.757Z,6.43
2018-10-18T22:41:50.931Z,4.37
2018-10-18T22:44:19.220Z,4.30
2018-10-18T22:46:47.800Z,7.37
2018-10-18T22:49:15.933Z,5.58
2018-10-18T22:51:44.057Z,3.20
2018-10-18T22:54:12.249Z,5.45
2018-10-18T22:56:40.371Z,4.43
2018-10-18T22:59:08.555Z,4.20
2018-10-18T23:01:36.703Z,7.20
2018-10-18T23:04:05.253Z,4.90
2018-10-18T23:06:33.392Z,5.43
2018-10-18T23:09:01.585Z,5.07
2018-10-18T23:11:29.679Z,6.10
2018-10-18T23:13:58.424Z,3.87
2018-10-18T23:16:26.606Z,3.73
2018-10-18T23:18:54.755Z,6.67
2018-10-18T23:21:22.898Z,6.50
2018-10-18T23:23:51.121Z,5.07
2018-10-18T23:26:19.245Z,4.27
2018-10-18T23:28:47.372Z,5.53
2018-10-18T23:31:15.511Z,4.23
2018-10-18T23:33:43.707Z,5.33
2018-10-18T23:36:11.847Z,8.67
2018-10-18T23:38:39.989Z,3.70
2018-10-18T23:41:08.178Z,5.90
2018-10-18T23:43:36.953Z,5.00
2018-10-18T23:46:05.848Z,3.77
2018-10-18T23:48:33.996Z,5.33
2018-10-18T23:51:02.136Z,4.57
2018-10-18T23:53:30.276Z,4.30
2018-10-18T23:55:58.457Z,3.77
2018-10-18T23:58:26.674Z,3.67
